sensor_id;sensor_type;location;lat;lon;timestamp;temperature;humidity
45715;DHT22;31430;61.646;24.704;2023-02-25T00:02:04;-4.50;99.90
45715;DHT22;31430;61.646;24.704;2023-02-25T00:04:30;-4.50;99.90
45715;DHT22;31430;61.646;24.704;2023-02-25T00:06:56;-4.40;99.90
45715;DHT22;31430;61.646;24.704;2023-02-25T00:09:21;-4.40;99.90
45715;DHT22;31430;61.646;24.704;2023-02-25T00:11:47;-4.50;99.90
45715;DHT22;31430;61.646;24.704;2023-02-25T00:14:13;-4.50;99.90
45715;DHT22;31430;61.646;24.704;2023-02-25T00:16:39;-4.40;99.90
45715;DHT22;31430;61.646;24.704;2023-02-25T00:19:04;-4.50;99.90
45715;DHT22;31430;61.646;24.704;2023-02-25T00:21:30;-4.40;99.90
45715;DHT22;31430;61.646;24.704;2023-02-25T00:23:56;-4.40;99.90
45715;DHT22;31430;61.646;24.704;2023-02-25T00:26:22;-4.50;99.90
45715;DHT22;31430;61.646;24.704;2023-02-25T00:28:47;-4.50;99.90
45715;DHT22;31430;61.646;24.704;2023-02-25T00:31:22;-4.50;99.90
45715;DHT22;31430;61.646;24.704;2023-02-25T00:33:49;-4.60;99.90
45715;DHT22;31430;61.646;24.704;2023-02-25T00:36:22;-4.50;99.90
45715;DHT22;31430;61.646;24.704;2023-02-25T00:38:50;-4.50;99.90
45715;DHT22;31430;61.646;24.704;2023-02-25T00:41:18;-4.50;99.90
45715;DHT22;31430;61.646;24.704;2023-02-25T00:43:48;-4.60;99.90
45715;DHT22;31430;61.646;24.704;2023-02-25T00:46:14;-4.60;99.90
45715;DHT22;31430;61.646;24.704;2023-02-25T00:48:40;-4.60;99.90
45715;DHT22;31430;61.646;24.704;2023-02-25T00:51:27;-4.60;99.90
45715;DHT22;31430;61.646;24.704;2023-02-25T00:53:53;-4.70;99.90
45715;DHT22;31430;61.646;24.704;2023-02-25T00:56:21;-4.70;99.90
45715;DHT22;31430;61.646;24.704;2023-02-25T00:58:49;-4.80;99.90
45715;DHT22;31430;61.646;24.704;2023-02-25T01:01:20;-4.80;99.90
45715;DHT22;31430;61.646;24.704;2023-02-25T01:03:47;-4.80;99.90
45715;DHT22;31430;61.646;24.704;2023-02-25T01:06:13;-4.90;99.90
45715;DHT22;31430;61.646;24.704;2023-02-25T01:08:38;-4.80;99.90
45715;DHT22;31430;61.646;24.704;2023-02-25T01:11:17;-4.90;99.90
45715;DHT22;31430;61.646;24.704;2023-02-25T01:13:48;-4.90;99.90
45715;DHT22;31430;61.646;24.704;2023-02-25T01:16:17;-4.80;99.90
45715;DHT22;31430;61.646;24.704;2023-02-25T01:18:44;-4.80;99.90
45715;DHT22;31430;61.646;24.704;2023-02-25T01:21:28;-4.80;99.90
45715;DHT22;31430;61.646;24.704;2023-02-25T01:23:56;-4.80;99.90
45715;DHT22;31430;61.646;24.704;2023-02-25T01:26:30;-4.60;99.90
45715;DHT22;31430;61.646;24.704;2023-02-25T01:28:56;-4.60;99.90
45715;DHT22;31430;61.646;24.704;2023-02-25T01:31:23;-4.70;99.90
45715;DHT22;31430;61.646;24.704;2023-02-25T01:34:00;-4.70;99.90
45715;DHT22;31430;61.646;24.704;2023-02-25T01:36:28;-4.70;99.90
45715;DHT22;31430;61.646;24.704;2023-02-25T01:38:54;-4.60;99.90
45715;DHT22;31430;61.646;24.704;2023-02-25T01:41:21;-4.60;99.90
45715;DHT22;31430;61.646;24.704;2023-02-25T01:46:45;-4.60;99.90
45715;DHT22;31430;61.646;24.704;2023-02-25T01:49:37;-4.60;99.90
45715;DHT22;31430;61.646;24.704;2023-02-25T01:52:10;-4.60;99.90
45715;DHT22;31430;61.646;24.704;2023-02-25T01:54:38;-4.60;99.90
45715;DHT22;31430;61.646;24.704;2023-02-25T01:57:07;-4.50;99.90
45715;DHT22;31430;61.646;24.704;2023-02-25T01:59:34;-4.50;99.90
45715;DHT22;31430;61.646;24.704;2023-02-25T02:02:01;-4.40;99.90
45715;DHT22;31430;61.646;24.704;2023-02-25T02:04:27;-4.50;99.90
45715;DHT22;31430;61.646;24.704;2023-02-25T02:06:54;-4.50;99.90
45715;DHT22;31430;61.646;24.704;2023-02-25T02:09:23;-4.50;99.90
45715;DHT22;31430;61.646;24.704;2023-02-25T02:11:49;-4.40;99.90
45715;DHT22;31430;61.646;24.704;2023-02-25T02:14:22;-4.40;99.90
45715;DHT22;31430;61.646;24.704;2023-02-25T02:18:13;-4.40;99.90
45715;DHT22;31430;61.646;24.704;2023-02-25T02:34:53;-4.50;99.90
45715;DHT22;31430;61.646;24.704;2023-02-25T02:49:32;-4.50;99.90
45715;DHT22;31430;61.646;24.704;2023-02-25T02:51:36;-4.70;99.90
45715;DHT22;31430;61.646;24.704;2023-02-25T02:54:05;-4.80;99.90
45715;DHT22;31430;61.646;24.704;2023-02-25T02:56:35;-4.70;99.90
45715;DHT22;31430;61.646;24.704;2023-02-25T03:01:39;-4.60;99.90
45715;DHT22;31430;61.646;24.704;2023-02-25T03:04:11;-4.60;99.90
45715;DHT22;31430;61.646;24.704;2023-02-25T03:06:41;-4.60;99.90
45715;DHT22;31430;61.646;24.704;2023-02-25T03:09:15;-4.60;99.90
45715;DHT22;31430;61.646;24.704;2023-02-25T03:11:43;-4.60;99.90
45715;DHT22;31430;61.646;24.704;2023-02-25T03:14:10;-4.50;99.90
45715;DHT22;31430;61.646;24.704;2023-02-25T03:16:43;-4.50;99.90
45715;DHT22;31430;61.646;24.704;2023-02-25T03:19:13;-4.40;99.90
45715;DHT22;31430;61.646;24.704;2023-02-25T03:21:43;-4.30;99.90
45715;DHT22;31430;61.646;24.704;2023-02-25T03:24:22;-4.30;99.90
45715;DHT22;31430;61.646;24.704;2023-02-25T03:26:50;-4.30;99.90
45715;DHT22;31430;61.646;24.704;2023-02-25T03:29:19;-4.20;99.90
45715;DHT22;31430;61.646;24.704;2023-02-25T03:34:22;-4.00;99.90
45715;DHT22;31430;61.646;24.704;2023-02-25T03:36:59;-4.00;99.90
45715;DHT22;31430;61.646;24.704;2023-02-25T03:39:28;-3.90;99.90
45715;DHT22;31430;61.646;24.704;2023-02-25T03:41:58;-3.90;99.90
45715;DHT22;31430;61.646;24.704;2023-02-25T03:44:37;-4.00;99.90
45715;DHT22;31430;61.646;24.704;2023-02-25T03:47:08;-3.90;99.90
45715;DHT22;31430;61.646;24.704;2023-02-25T03:49:47;-3.90;99.90
45715;DHT22;31430;61.646;24.704;2023-02-25T03:52:17;-3.90;99.90
45715;DHT22;31430;61.646;24.704;2023-02-25T03:54:51;-3.90;99.90
45715;DHT22;31430;61.646;24.704;2023-02-25T03:57:18;-3.80;99.90
45715;DHT22;31430;61.646;24.704;2023-02-25T03:59:44;-3.80;99.90
45715;DHT22;31430;61.646;24.704;2023-02-25T04:02:11;-3.80;99.90
45715;DHT22;31430;61.646;24.704;2023-02-25T04:04:38;-3.80;99.90
45715;DHT22;31430;61.646;24.704;2023-02-25T04:07:04;-3.80;99.90
45715;DHT22;31430;61.646;24.704;2023-02-25T04:09:29;-3.80;99.90
45715;DHT22;31430;61.646;24.704;2023-02-25T04:11:55;-3.80;99.90
45715;DHT22;31430;61.646;24.704;2023-02-25T04:14:22;-3.80;99.90
45715;DHT22;31430;61.646;24.704;2023-02-25T04:16:48;-3.80;99.90
45715;DHT22;31430;61.646;24.704;2023-02-25T04:19:13;-3.80;99.90
45715;DHT22;31430;61.646;24.704;2023-02-25T04:21:39;-3.80;99.90
45715;DHT22;31430;61.646;24.704;2023-02-25T04:24:06;-3.80;99.90
45715;DHT22;31430;61.646;24.704;2023-02-25T04:26:33;-3.80;99.90
45715;DHT22;31430;61.646;24.704;2023-02-25T04:28:59;-3.80;99.90
45715;DHT22;31430;61.646;24.704;2023-02-25T04:31:24;-3.80;99.90
45715;DHT22;31430;61.646;24.704;2023-02-25T04:33:50;-3.80;99.90
45715;DHT22;31430;61.646;24.704;2023-02-25T04:36:24;-3.80;99.90
45715;DHT22;31430;61.646;24.704;2023-02-25T04:38:50;-3.80;99.90
45715;DHT22;31430;61.646;24.704;2023-02-25T04:41:16;-3.80;99.90
45715;DHT22;31430;61.646;24.704;2023-02-25T04:43:41;-3.80;99.90
45715;DHT22;31430;61.646;24.704;2023-02-25T04:46:09;-3.80;99.90
45715;DHT22;31430;61.646;24.704;2023-02-25T04:48:35;-3.80;99.90
45715;DHT22;31430;61.646;24.704;2023-02-25T04:51:02;-3.80;99.90
45715;DHT22;31430;61.646;24.704;2023-02-25T04:53:28;-3.80;99.90
45715;DHT22;31430;61.646;24.704;2023-02-25T04:55:53;-3.90;99.90
45715;DHT22;31430;61.646;24.704;2023-02-25T04:58:19;-3.80;99.90
45715;DHT22;31430;61.646;24.704;2023-02-25T05:00:45;-3.90;99.90
45715;DHT22;31430;61.646;24.704;2023-02-25T05:03:11;-3.80;99.90
45715;DHT22;31430;61.646;24.704;2023-02-25T05:05:37;-3.80;99.90
45715;DHT22;31430;61.646;24.704;2023-02-25T05:08:03;-3.80;99.90
45715;DHT22;31430;61.646;24.704;2023-02-25T05:10:29;-3.80;99.90
45715;DHT22;31430;61.646;24.704;2023-02-25T05:12:55;-3.80;99.90
45715;DHT22;31430;61.646;24.704;2023-02-25T05:15:21;-3.90;99.90
45715;DHT22;31430;61.646;24.704;2023-02-25T05:17:46;-3.90;99.90
45715;DHT22;31430;61.646;24.704;2023-02-25T05:20:13;-4.00;99.90
45715;DHT22;31430;61.646;24.704;2023-02-25T05:22:40;-3.90;99.90
45715;DHT22;31430;61.646;24.704;2023-02-25T05:25:07;-3.90;99.90
45715;DHT22;31430;61.646;24.704;2023-02-25T05:27:33;-4.00;99.90
45715;DHT22;31430;61.646;24.704;2023-02-25T05:30:00;-4.00;99.90
45715;DHT22;31430;61.646;24.704;2023-02-25T05:32:26;-4.00;99.90
45715;DHT22;31430;61.646;24.704;2023-02-25T05:34:52;-4.00;99.90
45715;DHT22;31430;61.646;24.704;2023-02-25T05:37:18;-4.00;99.90
45715;DHT22;31430;61.646;24.704;2023-02-25T05:39:43;-4.00;99.90
45715;DHT22;31430;61.646;24.704;2023-02-25T05:42:09;-4.00;99.90
45715;DHT22;31430;61.646;24.704;2023-02-25T05:44:35;-4.00;99.90
45715;DHT22;31430;61.646;24.704;2023-02-25T05:47:01;-4.00;99.90
45715;DHT22;31430;61.646;24.704;2023-02-25T05:49:27;-4.00;99.90
45715;DHT22;31430;61.646;24.704;2023-02-25T05:51:52;-4.00;99.90
45715;DHT22;31430;61.646;24.704;2023-02-25T05:54:18;-4.00;99.90
45715;DHT22;31430;61.646;24.704;2023-02-25T05:56:44;-4.00;99.90
45715;DHT22;31430;61.646;24.704;2023-02-25T05:59:13;-4.00;99.90
45715;DHT22;31430;61.646;24.704;2023-02-25T06:01:38;-4.00;99.90
45715;DHT22;31430;61.646;24.704;2023-02-25T06:04:06;-4.00;99.90
45715;DHT22;31430;61.646;24.704;2023-02-25T06:06:31;-4.00;99.90
45715;DHT22;31430;61.646;24.704;2023-02-25T06:08:57;-4.00;99.90
45715;DHT22;31430;61.646;24.704;2023-02-25T06:11:26;-4.00;99.90
45715;DHT22;31430;61.646;24.704;2023-02-25T06:13:53;-3.90;99.90
45715;DHT22;31430;61.646;24.704;2023-02-25T06:16:19;-3.90;99.90
45715;DHT22;31430;61.646;24.704;2023-02-25T06:18:46;-3.90;99.90
45715;DHT22;31430;61.646;24.704;2023-02-25T06:21:13;-3.80;99.90
45715;DHT22;31430;61.646;24.704;2023-02-25T06:23:40;-3.90;99.90
45715;DHT22;31430;61.646;24.704;2023-02-25T06:26:07;-3.80;99.90
45715;DHT22;31430;61.646;24.704;2023-02-25T06:28:34;-3.80;99.90
45715;DHT22;31430;61.646;24.704;2023-02-25T06:31:00;-3.80;99.90
45715;DHT22;31430;61.646;24.704;2023-02-25T06:33:29;-3.90;99.90
45715;DHT22;31430;61.646;24.704;2023-02-25T06:35:56;-3.80;99.90
45715;DHT22;31430;61.646;24.704;2023-02-25T06:38:22;-3.80;99.90
45715;DHT22;31430;61.646;24.704;2023-02-25T06:40:48;-3.80;99.90
45715;DHT22;31430;61.646;24.704;2023-02-25T06:43:15;-3.80;99.90
45715;DHT22;31430;61.646;24.704;2023-02-25T06:45:40;-3.80;99.90
45715;DHT22;31430;61.646;24.704;2023-02-25T06:48:06;-3.80;99.90
45715;DHT22;31430;61.646;24.704;2023-02-25T06:50:37;-3.80;99.90
45715;DHT22;31430;61.646;24.704;2023-02-25T06:53:03;-3.80;99.90
45715;DHT22;31430;61.646;24.704;2023-02-25T06:55:29;-4.00;99.90
45715;DHT22;31430;61.646;24.704;2023-02-25T06:57:55;-4.00;99.90
45715;DHT22;31430;61.646;24.704;2023-02-25T07:00:21;-4.00;99.90
45715;DHT22;31430;61.646;24.704;2023-02-25T07:02:46;-4.10;99.90
45715;DHT22;31430;61.646;24.704;2023-02-25T07:05:12;-4.10;99.90
45715;DHT22;31430;61.646;24.704;2023-02-25T07:07:38;-4.10;99.90
45715;DHT22;31430;61.646;24.704;2023-02-25T07:10:04;-4.00;99.90
45715;DHT22;31430;61.646;24.704;2023-02-25T07:12:30;-4.00;99.90
45715;DHT22;31430;61.646;24.704;2023-02-25T07:14:59;-4.00;99.90
45715;DHT22;31430;61.646;24.704;2023-02-25T07:17:24;-3.90;99.90
45715;DHT22;31430;61.646;24.704;2023-02-25T07:19:50;-3.80;99.90
45715;DHT22;31430;61.646;24.704;2023-02-25T07:22:16;-3.80;99.90
45715;DHT22;31430;61.646;24.704;2023-02-25T07:24:43;-3.90;99.90
45715;DHT22;31430;61.646;24.704;2023-02-25T07:27:08;-3.80;99.90
45715;DHT22;31430;61.646;24.704;2023-02-25T07:29:34;-3.80;99.90
45715;DHT22;31430;61.646;24.704;2023-02-25T07:32:00;-3.70;99.90
45715;DHT22;31430;61.646;24.704;2023-02-25T07:34:26;-3.70;99.90
45715;DHT22;31430;61.646;24.704;2023-02-25T07:36:51;-3.60;99.90
45715;DHT22;31430;61.646;24.704;2023-02-25T07:39:17;-3.60;99.90
45715;DHT22;31430;61.646;24.704;2023-02-25T07:41:43;-3.50;99.90
45715;DHT22;31430;61.646;24.704;2023-02-25T07:44:09;-3.60;99.90
45715;DHT22;31430;61.646;24.704;2023-02-25T07:46:35;-3.60;99.90
45715;DHT22;31430;61.646;24.704;2023-02-25T07:49:01;-3.40;99.90
45715;DHT22;31430;61.646;24.704;2023-02-25T07:51:27;-3.30;99.90
45715;DHT22;31430;61.646;24.704;2023-02-25T07:53:54;-3.30;99.90
45715;DHT22;31430;61.646;24.704;2023-02-25T07:56:21;-3.10;99.90
45715;DHT22;31430;61.646;24.704;2023-02-25T07:58:47;-3.10;99.90
45715;DHT22;31430;61.646;24.704;2023-02-25T08:03:44;-3.20;99.90
45715;DHT22;31430;61.646;24.704;2023-02-25T08:06:13;-3.20;99.90
45715;DHT22;31430;61.646;24.704;2023-02-25T08:08:39;-3.00;99.90
45715;DHT22;31430;61.646;24.704;2023-02-25T08:11:06;-2.80;99.90
45715;DHT22;31430;61.646;24.704;2023-02-25T08:13:32;-2.70;99.90
45715;DHT22;31430;61.646;24.704;2023-02-25T08:15:58;-2.90;99.90
45715;DHT22;31430;61.646;24.704;2023-02-25T08:18:24;-2.80;99.90
45715;DHT22;31430;61.646;24.704;2023-02-25T08:20:50;-2.60;99.90
45715;DHT22;31430;61.646;24.704;2023-02-25T08:23:15;-2.20;99.90
45715;DHT22;31430;61.646;24.704;2023-02-25T08:25:41;-2.10;99.90
45715;DHT22;31430;61.646;24.704;2023-02-25T08:28:07;-2.20;99.90
45715;DHT22;31430;61.646;24.704;2023-02-25T08:30:33;-2.40;99.90
45715;DHT22;31430;61.646;24.704;2023-02-25T08:32:59;-2.50;99.90
45715;DHT22;31430;61.646;24.704;2023-02-25T08:35:25;-2.70;99.90
45715;DHT22;31430;61.646;24.704;2023-02-25T08:37:51;-2.60;99.90
45715;DHT22;31430;61.646;24.704;2023-02-25T08:40:17;-2.70;99.90
45715;DHT22;31430;61.646;24.704;2023-02-25T08:42:43;-2.60;99.90
45715;DHT22;31430;61.646;24.704;2023-02-25T08:45:09;-2.60;99.90
45715;DHT22;31430;61.646;24.704;2023-02-25T08:47:35;-2.60;99.90
45715;DHT22;31430;61.646;24.704;2023-02-25T08:50:01;-2.70;99.90
45715;DHT22;31430;61.646;24.704;2023-02-25T08:52:27;-3.00;99.90
45715;DHT22;31430;61.646;24.704;2023-02-25T08:54:59;-2.80;99.90
45715;DHT22;31430;61.646;24.704;2023-02-25T08:57:25;-2.80;99.90
45715;DHT22;31430;61.646;24.704;2023-02-25T08:59:50;-2.70;99.90
45715;DHT22;31430;61.646;24.704;2023-02-25T09:02:16;-2.60;99.90
45715;DHT22;31430;61.646;24.704;2023-02-25T09:04:42;-2.60;99.90
45715;DHT22;31430;61.646;24.704;2023-02-25T09:07:08;-2.70;99.90
45715;DHT22;31430;61.646;24.704;2023-02-25T09:09:33;-2.60;99.90
45715;DHT22;31430;61.646;24.704;2023-02-25T09:12:00;-2.20;99.90
45715;DHT22;31430;61.646;24.704;2023-02-25T09:14:29;-2.00;99.90
45715;DHT22;31430;61.646;24.704;2023-02-25T09:16:56;-1.50;99.90
45715;DHT22;31430;61.646;24.704;2023-02-25T09:19:21;-1.30;99.90
45715;DHT22;31430;61.646;24.704;2023-02-25T09:21:47;-1.30;99.90
45715;DHT22;31430;61.646;24.704;2023-02-25T09:24:13;-1.40;99.90
45715;DHT22;31430;61.646;24.704;2023-02-25T09:26:39;-1.70;99.90
45715;DHT22;31430;61.646;24.704;2023-02-25T09:29:05;-1.80;99.90
45715;DHT22;31430;61.646;24.704;2023-02-25T09:31:31;-2.00;99.90
45715;DHT22;31430;61.646;24.704;2023-02-25T09:34:00;-2.00;99.90
45715;DHT22;31430;61.646;24.704;2023-02-25T09:36:26;-2.20;99.90
45715;DHT22;31430;61.646;24.704;2023-02-25T09:38:51;-2.40;99.90
45715;DHT22;31430;61.646;24.704;2023-02-25T09:43:47;-2.50;99.90
45715;DHT22;31430;61.646;24.704;2023-02-25T09:46:16;-2.50;99.90
45715;DHT22;31430;61.646;24.704;2023-02-25T09:48:58;-2.60;99.90
45715;DHT22;31430;61.646;24.704;2023-02-25T09:51:35;-2.70;99.90
45715;DHT22;31430;61.646;24.704;2023-02-25T09:54:08;-2.80;99.90
45715;DHT22;31430;61.646;24.704;2023-02-25T09:56:35;-2.90;99.90
45715;DHT22;31430;61.646;24.704;2023-02-25T09:59:01;-3.00;99.90
45715;DHT22;31430;61.646;24.704;2023-02-25T10:01:35;-3.20;99.90
45715;DHT22;31430;61.646;24.704;2023-02-25T10:04:07;-3.30;99.90
45715;DHT22;31430;61.646;24.704;2023-02-25T10:06:38;-3.50;99.90
45715;DHT22;31430;61.646;24.704;2023-02-25T10:12:04;-3.40;99.90
45715;DHT22;31430;61.646;24.704;2023-02-25T10:14:47;-3.30;99.90
45715;DHT22;31430;61.646;24.704;2023-02-25T10:17:25;-3.20;99.90
45715;DHT22;31430;61.646;24.704;2023-02-25T10:25:26;-3.30;99.90
45715;DHT22;31430;61.646;24.704;2023-02-25T10:27:59;-3.30;99.90
45715;DHT22;31430;61.646;24.704;2023-02-25T10:30:48;-3.20;99.90
45715;DHT22;31430;61.646;24.704;2023-02-25T10:33:18;-3.20;99.90
45715;DHT22;31430;61.646;24.704;2023-02-25T10:36:38;-3.20;99.90
45715;DHT22;31430;61.646;24.704;2023-02-25T10:38:47;-3.00;99.90
45715;DHT22;31430;61.646;24.704;2023-02-25T10:41:13;-2.90;99.90
45715;DHT22;31430;61.646;24.704;2023-02-25T10:43:39;-2.80;99.90
45715;DHT22;31430;61.646;24.704;2023-02-25T10:46:35;-2.70;99.90
45715;DHT22;31430;61.646;24.704;2023-02-25T10:49:19;-2.60;99.90
45715;DHT22;31430;61.646;24.704;2023-02-25T10:54:29;-2.50;99.90
45715;DHT22;31430;61.646;24.704;2023-02-25T10:56:55;-2.40;99.90
45715;DHT22;31430;61.646;24.704;2023-02-25T10:59:27;-2.30;99.90
45715;DHT22;31430;61.646;24.704;2023-02-25T11:01:53;-2.20;99.90
45715;DHT22;31430;61.646;24.704;2023-02-25T11:04:33;-2.20;99.90
45715;DHT22;31430;61.646;24.704;2023-02-25T11:07:00;-2.20;99.90
45715;DHT22;31430;61.646;24.704;2023-02-25T11:09:28;-2.10;99.90
45715;DHT22;31430;61.646;24.704;2023-02-25T11:12:16;-2.10;99.90
45715;DHT22;31430;61.646;24.704;2023-02-25T11:14:40;-2.10;99.90
45715;DHT22;31430;61.646;24.704;2023-02-25T11:19:39;-2.00;99.90
45715;DHT22;31430;61.646;24.704;2023-02-25T11:22:15;-1.90;99.90
45715;DHT22;31430;61.646;24.704;2023-02-25T11:24:42;-1.80;99.90
45715;DHT22;31430;61.646;24.704;2023-02-25T11:27:25;-1.80;99.90
45715;DHT22;31430;61.646;24.704;2023-02-25T11:29:54;-1.90;99.90
45715;DHT22;31430;61.646;24.704;2023-02-25T11:32:23;-2.00;99.90
45715;DHT22;31430;61.646;24.704;2023-02-25T11:35:01;-1.90;99.90
45715;DHT22;31430;61.646;24.704;2023-02-25T11:37:39;-1.90;99.90
45715;DHT22;31430;61.646;24.704;2023-02-25T11:40:40;-1.70;99.90
45715;DHT22;31430;61.646;24.704;2023-02-25T11:45:32;-1.80;99.90
45715;DHT22;31430;61.646;24.704;2023-02-25T11:47:59;-1.90;99.90
45715;DHT22;31430;61.646;24.704;2023-02-25T11:50:38;-2.00;99.90
45715;DHT22;31430;61.646;24.704;2023-02-25T11:53:23;-1.90;99.90
45715;DHT22;31430;61.646;24.704;2023-02-25T12:02:18;-1.70;99.90
45715;DHT22;31430;61.646;24.704;2023-02-25T12:10:35;-1.60;99.90
45715;DHT22;31430;61.646;24.704;2023-02-25T12:22:12;-1.60;99.90
45715;DHT22;31430;61.646;24.704;2023-02-25T12:25:46;-1.60;99.90
45715;DHT22;31430;61.646;24.704;2023-02-25T13:02:28;-1.50;99.90
45715;DHT22;31430;61.646;24.704;2023-02-25T13:21:50;-1.90;99.90
45715;DHT22;31430;61.646;24.704;2023-02-25T13:25:07;-1.90;99.90
45715;DHT22;31430;61.646;24.704;2023-02-25T13:50:28;-1.30;99.90
45715;DHT22;31430;61.646;24.704;2023-02-25T13:53:25;-1.50;99.90
45715;DHT22;31430;61.646;24.704;2023-02-25T14:21:01;-2.70;99.90
45715;DHT22;31430;61.646;24.704;2023-02-25T14:29:19;-3.00;99.90
45715;DHT22;31430;61.646;24.704;2023-02-25T14:34:48;-3.10;99.90
45715;DHT22;31430;61.646;24.704;2023-02-25T14:43:02;-3.50;99.90
45715;DHT22;31430;61.646;24.704;2023-02-25T14:45:50;-3.50;99.90
45715;DHT22;31430;61.646;24.704;2023-02-25T14:57:33;-3.50;99.90
45715;DHT22;31430;61.646;24.704;2023-02-25T15:14:44;-3.80;99.90
45715;DHT22;31430;61.646;24.704;2023-02-25T15:22:36;-4.30;99.90
45715;DHT22;31430;61.646;24.704;2023-02-25T15:27:52;-4.30;99.90
45715;DHT22;31430;61.646;24.704;2023-02-25T15:30:22;-4.40;99.90
45715;DHT22;31430;61.646;24.704;2023-02-25T15:43:29;-4.40;99.90
45715;DHT22;31430;61.646;24.704;2023-02-25T15:48:41;-4.60;99.90
45715;DHT22;31430;61.646;24.704;2023-02-25T15:51:47;-4.60;99.90
45715;DHT22;31430;61.646;24.704;2023-02-25T15:56:59;-4.80;99.90
45715;DHT22;31430;61.646;24.704;2023-02-25T15:59:50;-5.00;99.90
45715;DHT22;31430;61.646;24.704;2023-02-25T16:05:43;-5.20;99.90
45715;DHT22;31430;61.646;24.704;2023-02-25T16:08:19;-5.30;99.90
45715;DHT22;31430;61.646;24.704;2023-02-25T16:10:49;-5.40;99.90
45715;DHT22;31430;61.646;24.704;2023-02-25T16:13:29;-5.60;99.90
45715;DHT22;31430;61.646;24.704;2023-02-25T16:15:56;-5.80;99.90
45715;DHT22;31430;61.646;24.704;2023-02-25T16:18:34;-5.90;99.90
45715;DHT22;31430;61.646;24.704;2023-02-25T16:21:06;-6.00;99.90
45715;DHT22;31430;61.646;24.704;2023-02-25T16:23:39;-6.10;99.90
45715;DHT22;31430;61.646;24.704;2023-02-25T16:26:37;-6.10;99.90
45715;DHT22;31430;61.646;24.704;2023-02-25T16:40:04;-6.50;99.90
45715;DHT22;31430;61.646;24.704;2023-02-25T16:42:32;-6.60;99.90
45715;DHT22;31430;61.646;24.704;2023-02-25T16:45:00;-6.70;99.90
45715;DHT22;31430;61.646;24.704;2023-02-25T16:47:35;-6.90;99.90
45715;DHT22;31430;61.646;24.704;2023-02-25T16:50:10;-6.90;99.90
45715;DHT22;31430;61.646;24.704;2023-02-25T16:52:39;-7.00;99.90
45715;DHT22;31430;61.646;24.704;2023-02-25T16:55:07;-7.00;99.90
45715;DHT22;31430;61.646;24.704;2023-02-25T16:57:37;-7.10;99.90
45715;DHT22;31430;61.646;24.704;2023-02-25T17:00:15;-7.20;99.90
45715;DHT22;31430;61.646;24.704;2023-02-25T17:02:48;-7.20;99.90
45715;DHT22;31430;61.646;24.704;2023-02-25T17:07:58;-7.30;99.90
45715;DHT22;31430;61.646;24.704;2023-02-25T17:10:45;-7.30;99.90
45715;DHT22;31430;61.646;24.704;2023-02-25T17:15:59;-7.50;99.90
45715;DHT22;31430;61.646;24.704;2023-02-25T17:18:49;-7.60;99.90
45715;DHT22;31430;61.646;24.704;2023-02-25T17:21:29;-7.70;99.90
45715;DHT22;31430;61.646;24.704;2023-02-25T17:23:59;-7.60;99.90
45715;DHT22;31430;61.646;24.704;2023-02-25T17:26:27;-7.50;99.90
45715;DHT22;31430;61.646;24.704;2023-02-25T17:28:56;-7.50;99.90
45715;DHT22;31430;61.646;24.704;2023-02-25T17:31:25;-7.50;99.90
45715;DHT22;31430;61.646;24.704;2023-02-25T17:34:02;-7.40;99.90
45715;DHT22;31430;61.646;24.704;2023-02-25T17:36:33;-7.40;99.90
45715;DHT22;31430;61.646;24.704;2023-02-25T17:39:11;-7.40;99.90
45715;DHT22;31430;61.646;24.704;2023-02-25T17:41:39;-7.50;99.90
45715;DHT22;31430;61.646;24.704;2023-02-25T17:47:01;-7.40;99.90
45715;DHT22;31430;61.646;24.704;2023-02-25T17:49:30;-7.30;99.90
45715;DHT22;31430;61.646;24.704;2023-02-25T17:51:59;-7.30;99.90
45715;DHT22;31430;61.646;24.704;2023-02-25T17:54:27;-7.20;99.90
45715;DHT22;31430;61.646;24.704;2023-02-25T17:56:57;-7.10;99.90
45715;DHT22;31430;61.646;24.704;2023-02-25T18:02:35;-7.00;99.90
45715;DHT22;31430;61.646;24.704;2023-02-25T18:07:40;-6.80;99.90
45715;DHT22;31430;61.646;24.704;2023-02-25T18:12:47;-6.70;99.90
45715;DHT22;31430;61.646;24.704;2023-02-25T18:15:17;-6.70;99.90
45715;DHT22;31430;61.646;24.704;2023-02-25T18:17:47;-6.60;99.90
45715;DHT22;31430;61.646;24.704;2023-02-25T18:20:36;-6.70;99.90
45715;DHT22;31430;61.646;24.704;2023-02-25T18:23:17;-6.60;99.90
45715;DHT22;31430;61.646;24.704;2023-02-25T18:25:47;-6.60;99.90
45715;DHT22;31430;61.646;24.704;2023-02-25T18:28:14;-6.50;99.90
45715;DHT22;31430;61.646;24.704;2023-02-25T18:30:40;-6.50;99.90
45715;DHT22;31430;61.646;24.704;2023-02-25T18:33:06;-6.50;99.90
45715;DHT22;31430;61.646;24.704;2023-02-25T18:35:37;-6.40;99.90
45715;DHT22;31430;61.646;24.704;2023-02-25T18:38:04;-6.40;99.90
45715;DHT22;31430;61.646;24.704;2023-02-25T18:40:33;-6.40;99.90
45715;DHT22;31430;61.646;24.704;2023-02-25T18:43:01;-6.30;99.90
45715;DHT22;31430;61.646;24.704;2023-02-25T18:45:29;-6.20;99.90
45715;DHT22;31430;61.646;24.704;2023-02-25T18:47:55;-6.20;99.90
45715;DHT22;31430;61.646;24.704;2023-02-25T18:50:21;-6.20;99.90
45715;DHT22;31430;61.646;24.704;2023-02-25T18:52:48;-6.10;99.90
45715;DHT22;31430;61.646;24.704;2023-02-25T18:55:17;-6.00;99.90
45715;DHT22;31430;61.646;24.704;2023-02-25T18:57:43;-5.90;99.90
45715;DHT22;31430;61.646;24.704;2023-02-25T19:00:09;-5.90;99.90
45715;DHT22;31430;61.646;24.704;2023-02-25T19:02:42;-5.80;99.90
45715;DHT22;31430;61.646;24.704;2023-02-25T19:05:10;-5.70;99.90
45715;DHT22;31430;61.646;24.704;2023-02-25T19:07:36;-5.70;99.90
45715;DHT22;31430;61.646;24.704;2023-02-25T19:10:03;-5.60;99.90
45715;DHT22;31430;61.646;24.704;2023-02-25T19:12:32;-5.50;99.90
45715;DHT22;31430;61.646;24.704;2023-02-25T19:15:07;-5.50;99.90
45715;DHT22;31430;61.646;24.704;2023-02-25T19:17:33;-5.50;99.90
45715;DHT22;31430;61.646;24.704;2023-02-25T19:19:59;-5.50;99.90
45715;DHT22;31430;61.646;24.704;2023-02-25T19:22:25;-5.50;99.90
45715;DHT22;31430;61.646;24.704;2023-02-25T19:24:51;-5.40;99.90
45715;DHT22;31430;61.646;24.704;2023-02-25T19:27:20;-5.40;99.90
45715;DHT22;31430;61.646;24.704;2023-02-25T19:29:51;-5.40;99.90
45715;DHT22;31430;61.646;24.704;2023-02-25T19:32:17;-5.40;99.90
45715;DHT22;31430;61.646;24.704;2023-02-25T19:34:44;-5.40;99.90
45715;DHT22;31430;61.646;24.704;2023-02-25T19:37:10;-5.30;99.90
45715;DHT22;31430;61.646;24.704;2023-02-25T19:39:36;-5.30;99.90
45715;DHT22;31430;61.646;24.704;2023-02-25T19:42:02;-5.30;99.90
45715;DHT22;31430;61.646;24.704;2023-02-25T19:44:27;-5.30;99.90
45715;DHT22;31430;61.646;24.704;2023-02-25T19:46:53;-5.20;99.90
45715;DHT22;31430;61.646;24.704;2023-02-25T19:49:19;-5.20;99.90
45715;DHT22;31430;61.646;24.704;2023-02-25T19:51:44;-5.10;99.90
45715;DHT22;31430;61.646;24.704;2023-02-25T19:54:10;-5.10;99.90
45715;DHT22;31430;61.646;24.704;2023-02-25T19:56:36;-5.10;99.90
45715;DHT22;31430;61.646;24.704;2023-02-25T19:59:02;-5.10;99.90
45715;DHT22;31430;61.646;24.704;2023-02-25T20:01:27;-5.10;99.90